Etusivu
METAR-TAF:

METAR-TAF

Lentoasemat :

Wittman Regional Airport

Oshkosh, Wisconsin, Yhdysvallat

Leveyspiiri: 43-58-00N, Pituuspiiri: 088-33-29W, korkeus merenpinnasta: 246 m

Tämänhetkinen sää

Tämä raportti tehtiin 11 minuuttia sitten, kello 03.14 UTC
Tuuli 8 kn pohjoisen/luoteesta
Lämpötila 1°C
Kosteus 93%
Ilmanpaine 1001 hPa
Näkyvyys: 2.8 km
Pilvistä 400 ft:n korkeudessa
heikkoa lumisadetta, utua

METAR: KOSH 160314Z 34008KT 1 3/4SM -SN BR OVC004 01/00 A2955 RMK AO2 CIG 003V009 P0001 T00060000

Aika: 21:25 (03:25 UTC)


TAF: puuttuu

Säähavainnot ja -ennusteet yli 4000 lentoasemalta (METAR- ja TAF-raportit).

Käytössä olevat sääasemat on merkitty karttaan keltaisilla ja punaisilla pisteillä.

Aseta hiiri pisteen päälle nähdäksesi sääaseman nimen.

Klikkaa sitten nähdäksesi säähavainnot ja -ennusteet.

Kartan vaihtaminen: klikkaa mustalla rastilla varustettuja vihreitä pisteitä, niin voit zoomata sisään; viivalla varustettua vihreää pistettä, niin voit zoomata ulos tai vihreitä nuolia, niin pääset viereisille kartoille.


METAR-TAF: